sensor_id;sensor_type;location;lat;lon;timestamp;P1;durP1;ratioP1;P2;durP2;ratioP2
46222;SDS011;31943;51.410;7.564;2023-08-31T00:02:25;7.43;;;4.13;;
46222;SDS011;31943;51.410;7.564;2023-08-31T00:04:51;8.00;;;4.35;;
46222;SDS011;31943;51.410;7.564;2023-08-31T00:07:16;7.85;;;4.80;;
46222;SDS011;31943;51.410;7.564;2023-08-31T00:09:42;8.18;;;4.80;;
46222;SDS011;31943;51.410;7.564;2023-08-31T00:12:07;8.20;;;4.55;;
46222;SDS011;31943;51.410;7.564;2023-08-31T00:14:35;4.80;;;3.83;;
46222;SDS011;31943;51.410;7.564;2023-08-31T00:17:00;9.50;;;4.60;;
46222;SDS011;31943;51.410;7.564;2023-08-31T00:19:26;6.93;;;4.00;;
46222;SDS011;31943;51.410;7.564;2023-08-31T00:21:52;6.50;;;3.90;;
46222;SDS011;31943;51.410;7.564;2023-08-31T00:24:17;5.10;;;3.97;;
46222;SDS011;31943;51.410;7.564;2023-08-31T00:26:43;6.18;;;3.95;;
46222;SDS011;31943;51.410;7.564;2023-08-31T00:29:09;6.68;;;4.05;;
46222;SDS011;31943;51.410;7.564;2023-08-31T00:31:36;5.43;;;3.92;;
46222;SDS011;31943;51.410;7.564;2023-08-31T00:34:02;6.28;;;3.60;;
46222;SDS011;31943;51.410;7.564;2023-08-31T00:36:30;7.22;;;3.35;;
46222;SDS011;31943;51.410;7.564;2023-08-31T00:38:56;7.05;;;3.80;;
46222;SDS011;31943;51.410;7.564;2023-08-31T00:41:23;6.07;;;3.45;;
46222;SDS011;31943;51.410;7.564;2023-08-31T00:43:48;8.15;;;3.75;;
46222;SDS011;31943;51.410;7.564;2023-08-31T00:46:14;5.68;;;3.20;;
46222;SDS011;31943;51.410;7.564;2023-08-31T00:48:41;8.65;;;3.63;;
46222;SDS011;31943;51.410;7.564;2023-08-31T00:51:07;7.70;;;2.90;;
46222;SDS011;31943;51.410;7.564;2023-08-31T00:53:33;7.13;;;3.33;;
46222;SDS011;31943;51.410;7.564;2023-08-31T00:55:58;5.22;;;3.05;;
46222;SDS011;31943;51.410;7.564;2023-08-31T00:58:24;7.57;;;3.00;;
46222;SDS011;31943;51.410;7.564;2023-08-31T01:01:04;4.40;;;2.83;;
46222;SDS011;31943;51.410;7.564;2023-08-31T01:03:42;7.07;;;2.90;;
46222;SDS011;31943;51.410;7.564;2023-08-31T01:06:17;5.00;;;2.75;;
46222;SDS011;31943;51.410;7.564;2023-08-31T01:08:52;4.47;;;2.85;;
46222;SDS011;31943;51.410;7.564;2023-08-31T01:13:57;6.45;;;2.88;;
46222;SDS011;31943;51.410;7.564;2023-08-31T01:16:26;7.15;;;2.97;;
46222;SDS011;31943;51.410;7.564;2023-08-31T01:18:54;6.35;;;3.10;;
46222;SDS011;31943;51.410;7.564;2023-08-31T01:21:22;3.85;;;2.88;;
46222;SDS011;31943;51.410;7.564;2023-08-31T01:23:52;5.32;;;3.20;;
46222;SDS011;31943;51.410;7.564;2023-08-31T01:26:18;5.88;;;2.92;;
46222;SDS011;31943;51.410;7.564;2023-08-31T01:28:46;5.72;;;2.83;;
46222;SDS011;31943;51.410;7.564;2023-08-31T01:31:12;4.03;;;2.90;;
46222;SDS011;31943;51.410;7.564;2023-08-31T01:33:38;4.47;;;3.00;;
46222;SDS011;31943;51.410;7.564;2023-08-31T01:36:04;10.93;;;3.65;;
46222;SDS011;31943;51.410;7.564;2023-08-31T01:38:35;4.35;;;2.42;;
46222;SDS011;31943;51.410;7.564;2023-08-31T01:41:06;5.25;;;2.67;;
46222;SDS011;31943;51.410;7.564;2023-08-31T01:43:36;7.18;;;2.83;;
46222;SDS011;31943;51.410;7.564;2023-08-31T01:46:05;7.80;;;2.90;;
46222;SDS011;31943;51.410;7.564;2023-08-31T01:48:37;4.90;;;2.95;;
46222;SDS011;31943;51.410;7.564;2023-08-31T01:51:03;8.32;;;2.97;;
46222;SDS011;31943;51.410;7.564;2023-08-31T01:53:29;5.45;;;3.00;;
46222;SDS011;31943;51.410;7.564;2023-08-31T01:55:54;5.70;;;3.03;;
46222;SDS011;31943;51.410;7.564;2023-08-31T01:58:22;8.10;;;3.20;;
46222;SDS011;31943;51.410;7.564;2023-08-31T02:00:47;6.75;;;3.22;;
46222;SDS011;31943;51.410;7.564;2023-08-31T02:03:13;7.50;;;2.85;;
46222;SDS011;31943;51.410;7.564;2023-08-31T02:05:38;6.72;;;3.20;;
46222;SDS011;31943;51.410;7.564;2023-08-31T02:08:04;6.38;;;3.17;;
46222;SDS011;31943;51.410;7.564;2023-08-31T02:10:30;6.18;;;3.20;;
46222;SDS011;31943;51.410;7.564;2023-08-31T02:12:56;5.43;;;3.20;;
46222;SDS011;31943;51.410;7.564;2023-08-31T02:15:23;6.15;;;3.70;;
46222;SDS011;31943;51.410;7.564;2023-08-31T02:17:48;9.32;;;3.75;;
46222;SDS011;31943;51.410;7.564;2023-08-31T02:20:14;6.45;;;3.95;;
46222;SDS011;31943;51.410;7.564;2023-08-31T02:22:40;6.93;;;4.00;;
46222;SDS011;31943;51.410;7.564;2023-08-31T02:25:06;7.65;;;4.18;;
46222;SDS011;31943;51.410;7.564;2023-08-31T02:27:31;6.65;;;3.60;;
46222;SDS011;31943;51.410;7.564;2023-08-31T02:29:57;6.97;;;4.00;;
46222;SDS011;31943;51.410;7.564;2023-08-31T02:32:24;6.30;;;3.63;;
46222;SDS011;31943;51.410;7.564;2023-08-31T02:34:50;7.68;;;3.40;;
46222;SDS011;31943;51.410;7.564;2023-08-31T02:37:15;6.68;;;3.88;;
46222;SDS011;31943;51.410;7.564;2023-08-31T02:39:41;3.35;;;3.05;;
46222;SDS011;31943;51.410;7.564;2023-08-31T02:42:07;5.93;;;3.20;;
46222;SDS011;31943;51.410;7.564;2023-08-31T02:44:32;7.47;;;3.63;;
46222;SDS011;31943;51.410;7.564;2023-08-31T02:46:58;4.38;;;3.03;;
46222;SDS011;31943;51.410;7.564;2023-08-31T02:49:24;7.32;;;4.07;;
46222;SDS011;31943;51.410;7.564;2023-08-31T02:51:50;5.93;;;3.58;;
46222;SDS011;31943;51.410;7.564;2023-08-31T02:54:16;4.88;;;3.28;;
46222;SDS011;31943;51.410;7.564;2023-08-31T02:56:41;5.68;;;3.65;;
46222;SDS011;31943;51.410;7.564;2023-08-31T02:59:07;3.25;;;2.95;;
46222;SDS011;31943;51.410;7.564;2023-08-31T03:01:34;4.78;;;3.20;;
46222;SDS011;31943;51.410;7.564;2023-08-31T03:04:00;7.03;;;3.70;;
46222;SDS011;31943;51.410;7.564;2023-08-31T03:06:27;5.97;;;3.40;;
46222;SDS011;31943;51.410;7.564;2023-08-31T03:08:53;4.45;;;3.92;;
46222;SDS011;31943;51.410;7.564;2023-08-31T03:11:18;8.32;;;4.43;;
46222;SDS011;31943;51.410;7.564;2023-08-31T03:13:44;5.50;;;3.88;;
46222;SDS011;31943;51.410;7.564;2023-08-31T03:16:10;6.53;;;4.15;;
46222;SDS011;31943;51.410;7.564;2023-08-31T03:18:35;7.00;;;4.47;;
46222;SDS011;31943;51.410;7.564;2023-08-31T03:21:00;6.55;;;4.32;;
46222;SDS011;31943;51.410;7.564;2023-08-31T03:23:28;5.45;;;3.97;;
46222;SDS011;31943;51.410;7.564;2023-08-31T03:25:54;6.68;;;4.47;;
46222;SDS011;31943;51.410;7.564;2023-08-31T03:28:21;6.65;;;4.07;;
46222;SDS011;31943;51.410;7.564;2023-08-31T03:30:53;5.72;;;4.15;;
46222;SDS011;31943;51.410;7.564;2023-08-31T03:33:19;9.18;;;4.55;;
46222;SDS011;31943;51.410;7.564;2023-08-31T03:35:45;6.05;;;3.78;;
46222;SDS011;31943;51.410;7.564;2023-08-31T03:38:11;8.50;;;4.00;;
46222;SDS011;31943;51.410;7.564;2023-08-31T03:40:38;5.55;;;4.20;;
46222;SDS011;31943;51.410;7.564;2023-08-31T03:43:03;5.47;;;4.20;;
46222;SDS011;31943;51.410;7.564;2023-08-31T03:45:29;6.60;;;4.13;;
46222;SDS011;31943;51.410;7.564;2023-08-31T03:47:54;8.05;;;4.30;;
46222;SDS011;31943;51.410;7.564;2023-08-31T03:50:20;5.80;;;3.75;;
46222;SDS011;31943;51.410;7.564;2023-08-31T03:52:45;7.43;;;4.55;;
46222;SDS011;31943;51.410;7.564;2023-08-31T03:55:11;6.97;;;4.20;;
46222;SDS011;31943;51.410;7.564;2023-08-31T03:57:38;9.13;;;5.30;;
46222;SDS011;31943;51.410;7.564;2023-08-31T04:00:04;6.13;;;4.28;;
46222;SDS011;31943;51.410;7.564;2023-08-31T04:02:33;6.15;;;4.68;;
46222;SDS011;31943;51.410;7.564;2023-08-31T04:05:02;7.18;;;5.35;;
46222;SDS011;31943;51.410;7.564;2023-08-31T04:07:28;8.43;;;5.13;;
46222;SDS011;31943;51.410;7.564;2023-08-31T04:09:54;6.82;;;4.70;;
46222;SDS011;31943;51.410;7.564;2023-08-31T04:12:20;7.30;;;4.75;;
46222;SDS011;31943;51.410;7.564;2023-08-31T04:14:47;7.72;;;5.53;;
46222;SDS011;31943;51.410;7.564;2023-08-31T04:17:13;8.18;;;5.65;;
46222;SDS011;31943;51.410;7.564;2023-08-31T04:19:40;9.75;;;6.22;;
46222;SDS011;31943;51.410;7.564;2023-08-31T04:22:06;7.40;;;5.43;;
46222;SDS011;31943;51.410;7.564;2023-08-31T04:24:32;8.02;;;5.30;;
46222;SDS011;31943;51.410;7.564;2023-08-31T04:26:57;6.13;;;5.35;;
46222;SDS011;31943;51.410;7.564;2023-08-31T04:29:23;7.60;;;5.43;;
46222;SDS011;31943;51.410;7.564;2023-08-31T04:31:50;6.13;;;5.15;;
46222;SDS011;31943;51.410;7.564;2023-08-31T04:34:16;6.55;;;5.20;;
46222;SDS011;31943;51.410;7.564;2023-08-31T04:36:41;9.50;;;6.95;;
46222;SDS011;31943;51.410;7.564;2023-08-31T04:39:08;8.63;;;5.70;;
46222;SDS011;31943;51.410;7.564;2023-08-31T04:41:34;7.65;;;6.22;;
46222;SDS011;31943;51.410;7.564;2023-08-31T04:44:00;9.57;;;6.40;;
46222;SDS011;31943;51.410;7.564;2023-08-31T04:46:26;6.70;;;5.55;;
46222;SDS011;31943;51.410;7.564;2023-08-31T04:48:52;9.35;;;5.30;;
46222;SDS011;31943;51.410;7.564;2023-08-31T04:54:02;8.85;;;6.28;;
46222;SDS011;31943;51.410;7.564;2023-08-31T04:56:30;12.52;;;7.15;;
46222;SDS011;31943;51.410;7.564;2023-08-31T04:58:56;7.57;;;6.35;;
46222;SDS011;31943;51.410;7.564;2023-08-31T05:01:21;7.78;;;6.00;;
46222;SDS011;31943;51.410;7.564;2023-08-31T05:03:48;7.50;;;6.65;;
46222;SDS011;31943;51.410;7.564;2023-08-31T05:06:15;6.80;;;5.93;;
46222;SDS011;31943;51.410;7.564;2023-08-31T05:08:41;10.10;;;6.60;;
46222;SDS011;31943;51.410;7.564;2023-08-31T05:11:06;7.85;;;7.05;;
46222;SDS011;31943;51.410;7.564;2023-08-31T05:13:32;6.47;;;5.82;;
46222;SDS011;31943;51.410;7.564;2023-08-31T05:15:59;7.00;;;6.03;;
46222;SDS011;31943;51.410;7.564;2023-08-31T05:18:24;8.25;;;6.53;;
46222;SDS011;31943;51.410;7.564;2023-08-31T05:20:50;6.97;;;6.10;;
46222;SDS011;31943;51.410;7.564;2023-08-31T05:23:17;7.38;;;6.38;;
46222;SDS011;31943;51.410;7.564;2023-08-31T05:25:43;7.78;;;7.05;;
46222;SDS011;31943;51.410;7.564;2023-08-31T05:28:10;7.65;;;6.13;;
46222;SDS011;31943;51.410;7.564;2023-08-31T05:30:35;6.55;;;5.95;;
46222;SDS011;31943;51.410;7.564;2023-08-31T05:33:01;9.15;;;5.82;;
46222;SDS011;31943;51.410;7.564;2023-08-31T05:35:26;10.27;;;6.63;;
46222;SDS011;31943;51.410;7.564;2023-08-31T05:37:52;8.98;;;6.75;;
46222;SDS011;31943;51.410;7.564;2023-08-31T05:40:20;9.10;;;8.18;;
46222;SDS011;31943;51.410;7.564;2023-08-31T05:42:47;7.32;;;6.63;;
46222;SDS011;31943;51.410;7.564;2023-08-31T05:45:14;8.82;;;6.93;;
46222;SDS011;31943;51.410;7.564;2023-08-31T05:47:40;9.73;;;7.20;;
46222;SDS011;31943;51.410;7.564;2023-08-31T05:50:08;8.93;;;7.18;;
46222;SDS011;31943;51.410;7.564;2023-08-31T05:52:34;9.05;;;7.55;;
46222;SDS011;31943;51.410;7.564;2023-08-31T05:54:59;7.43;;;6.70;;
46222;SDS011;31943;51.410;7.564;2023-08-31T05:57:27;9.05;;;8.15;;
46222;SDS011;31943;51.410;7.564;2023-08-31T05:59:53;11.45;;;8.07;;
46222;SDS011;31943;51.410;7.564;2023-08-31T06:02:19;10.77;;;8.00;;
46222;SDS011;31943;51.410;7.564;2023-08-31T06:04:45;9.65;;;8.13;;
46222;SDS011;31943;51.410;7.564;2023-08-31T06:07:10;9.38;;;8.02;;
46222;SDS011;31943;51.410;7.564;2023-08-31T06:09:36;11.38;;;8.23;;
46222;SDS011;31943;51.410;7.564;2023-08-31T06:12:02;13.10;;;8.50;;
46222;SDS011;31943;51.410;7.564;2023-08-31T06:14:30;10.80;;;8.65;;
46222;SDS011;31943;51.410;7.564;2023-08-31T06:16:55;10.02;;;7.75;;
46222;SDS011;31943;51.410;7.564;2023-08-31T06:19:21;16.98;;;9.13;;
46222;SDS011;31943;51.410;7.564;2023-08-31T06:21:47;11.77;;;9.32;;
46222;SDS011;31943;51.410;7.564;2023-08-31T06:24:12;11.88;;;8.80;;
46222;SDS011;31943;51.410;7.564;2023-08-31T06:26:38;9.20;;;8.30;;
46222;SDS011;31943;51.410;7.564;2023-08-31T06:29:04;11.88;;;8.73;;
46222;SDS011;31943;51.410;7.564;2023-08-31T06:31:31;10.13;;;8.60;;
46222;SDS011;31943;51.410;7.564;2023-08-31T06:33:56;9.85;;;7.90;;
46222;SDS011;31943;51.410;7.564;2023-08-31T06:36:23;10.98;;;8.07;;
46222;SDS011;31943;51.410;7.564;2023-08-31T06:38:49;11.68;;;9.18;;
46222;SDS011;31943;51.410;7.564;2023-08-31T06:41:15;11.75;;;8.60;;
46222;SDS011;31943;51.410;7.564;2023-08-31T06:43:40;10.02;;;9.02;;
46222;SDS011;31943;51.410;7.564;2023-08-31T06:46:06;8.98;;;8.07;;
46222;SDS011;31943;51.410;7.564;2023-08-31T06:48:35;9.10;;;7.63;;
46222;SDS011;31943;51.410;7.564;2023-08-31T06:51:01;8.52;;;7.40;;
46222;SDS011;31943;51.410;7.564;2023-08-31T06:53:27;8.45;;;7.55;;
46222;SDS011;31943;51.410;7.564;2023-08-31T06:55:53;10.65;;;8.27;;
46222;SDS011;31943;51.410;7.564;2023-08-31T06:58:18;8.40;;;7.38;;
46222;SDS011;31943;51.410;7.564;2023-08-31T07:00:44;9.43;;;6.90;;
46222;SDS011;31943;51.410;7.564;2023-08-31T07:03:11;9.10;;;7.63;;
46222;SDS011;31943;51.410;7.564;2023-08-31T07:05:41;8.00;;;7.20;;
46222;SDS011;31943;51.410;7.564;2023-08-31T07:08:07;7.28;;;6.57;;
46222;SDS011;31943;51.410;7.564;2023-08-31T07:10:33;8.38;;;6.75;;
46222;SDS011;31943;51.410;7.564;2023-08-31T07:13:00;8.20;;;5.85;;
46222;SDS011;31943;51.410;7.564;2023-08-31T07:15:26;6.05;;;5.43;;
46222;SDS011;31943;51.410;7.564;2023-08-31T07:17:52;5.97;;;5.13;;
46222;SDS011;31943;51.410;7.564;2023-08-31T07:20:20;5.05;;;4.55;;
46222;SDS011;31943;51.410;7.564;2023-08-31T07:22:47;6.28;;;4.45;;
46222;SDS011;31943;51.410;7.564;2023-08-31T07:25:12;5.40;;;4.22;;
46222;SDS011;31943;51.410;7.564;2023-08-31T07:27:40;6.20;;;4.95;;
46222;SDS011;31943;51.410;7.564;2023-08-31T07:30:06;5.05;;;4.28;;
46222;SDS011;31943;51.410;7.564;2023-08-31T07:32:32;7.57;;;4.30;;
46222;SDS011;31943;51.410;7.564;2023-08-31T07:34:58;6.13;;;3.90;;
46222;SDS011;31943;51.410;7.564;2023-08-31T07:37:24;5.93;;;3.75;;
46222;SDS011;31943;51.410;7.564;2023-08-31T07:39:51;5.13;;;3.67;;
46222;SDS011;31943;51.410;7.564;2023-08-31T07:42:17;6.43;;;3.53;;
46222;SDS011;31943;51.410;7.564;2023-08-31T07:44:43;6.20;;;3.35;;
46222;SDS011;31943;51.410;7.564;2023-08-31T07:47:10;4.47;;;2.72;;
46222;SDS011;31943;51.410;7.564;2023-08-31T07:49:35;5.97;;;3.20;;
46222;SDS011;31943;51.410;7.564;2023-08-31T07:52:01;4.50;;;2.70;;
46222;SDS011;31943;51.410;7.564;2023-08-31T07:54:27;5.07;;;2.78;;
46222;SDS011;31943;51.410;7.564;2023-08-31T07:56:54;4.90;;;3.03;;
46222;SDS011;31943;51.410;7.564;2023-08-31T07:59:20;5.97;;;2.40;;
46222;SDS011;31943;51.410;7.564;2023-08-31T08:01:47;4.72;;;2.53;;
46222;SDS011;31943;51.410;7.564;2023-08-31T08:04:14;4.03;;;2.53;;
46222;SDS011;31943;51.410;7.564;2023-08-31T08:06:39;6.15;;;2.10;;
46222;SDS011;31943;51.410;7.564;2023-08-31T08:09:05;5.30;;;2.90;;
46222;SDS011;31943;51.410;7.564;2023-08-31T08:11:32;6.78;;;2.40;;
46222;SDS011;31943;51.410;7.564;2023-08-31T08:14:03;2.72;;;2.30;;
46222;SDS011;31943;51.410;7.564;2023-08-31T08:16:29;2.97;;;1.98;;
46222;SDS011;31943;51.410;7.564;2023-08-31T08:18:55;4.47;;;1.77;;
46222;SDS011;31943;51.410;7.564;2023-08-31T08:21:21;4.43;;;1.85;;
46222;SDS011;31943;51.410;7.564;2023-08-31T08:23:47;5.22;;;2.30;;
46222;SDS011;31943;51.410;7.564;2023-08-31T08:26:12;3.55;;;1.67;;
46222;SDS011;31943;51.410;7.564;2023-08-31T08:28:38;5.70;;;2.05;;
46222;SDS011;31943;51.410;7.564;2023-08-31T08:31:05;2.75;;;2.00;;
46222;SDS011;31943;51.410;7.564;2023-08-31T08:33:31;4.00;;;1.70;;
46222;SDS011;31943;51.410;7.564;2023-08-31T08:35:56;3.90;;;1.67;;
46222;SDS011;31943;51.410;7.564;2023-08-31T08:38:23;2.88;;;1.48;;
46222;SDS011;31943;51.410;7.564;2023-08-31T08:40:48;4.63;;;1.88;;
46222;SDS011;31943;51.410;7.564;2023-08-31T08:43:14;3.00;;;1.60;;
46222;SDS011;31943;51.410;7.564;2023-08-31T08:45:43;3.35;;;1.63;;
46222;SDS011;31943;51.410;7.564;2023-08-31T08:48:13;2.40;;;1.38;;
46222;SDS011;31943;51.410;7.564;2023-08-31T08:50:40;3.35;;;1.60;;
46222;SDS011;31943;51.410;7.564;2023-08-31T08:53:06;2.85;;;1.42;;
46222;SDS011;31943;51.410;7.564;2023-08-31T08:55:32;5.80;;;1.55;;
46222;SDS011;31943;51.410;7.564;2023-08-31T08:57:58;2.70;;;1.48;;
46222;SDS011;31943;51.410;7.564;2023-08-31T09:00:24;2.80;;;1.30;;
46222;SDS011;31943;51.410;7.564;2023-08-31T09:02:51;4.35;;;1.52;;
46222;SDS011;31943;51.410;7.564;2023-08-31T09:05:18;6.43;;;1.63;;
46222;SDS011;31943;51.410;7.564;2023-08-31T09:08:00;4.35;;;1.48;;
46222;SDS011;31943;51.410;7.564;2023-08-31T09:10:32;5.55;;;1.50;;
46222;SDS011;31943;51.410;7.564;2023-08-31T09:12:58;4.70;;;1.23;;
46222;SDS011;31943;51.410;7.564;2023-08-31T09:15:25;3.65;;;1.58;;
46222;SDS011;31943;51.410;7.564;2023-08-31T09:17:51;4.03;;;1.17;;
46222;SDS011;31943;51.410;7.564;2023-08-31T09:20:20;3.78;;;1.38;;
46222;SDS011;31943;51.410;7.564;2023-08-31T09:22:46;5.93;;;1.45;;
46222;SDS011;31943;51.410;7.564;2023-08-31T09:25:11;3.05;;;1.30;;
46222;SDS011;31943;51.410;7.564;2023-08-31T09:27:38;3.00;;;1.48;;
46222;SDS011;31943;51.410;7.564;2023-08-31T09:30:04;4.63;;;1.88;;
46222;SDS011;31943;51.410;7.564;2023-08-31T09:32:33;5.38;;;1.52;;
46222;SDS011;31943;51.410;7.564;2023-08-31T09:34:59;4.20;;;1.60;;
46222;SDS011;31943;51.410;7.564;2023-08-31T09:37:28;3.80;;;1.42;;
46222;SDS011;31943;51.410;7.564;2023-08-31T09:39:55;5.07;;;1.83;;
46222;SDS011;31943;51.410;7.564;2023-08-31T09:42:21;3.38;;;1.38;;
46222;SDS011;31943;51.410;7.564;2023-08-31T09:44:47;3.00;;;1.17;;
46222;SDS011;31943;51.410;7.564;2023-08-31T09:47:15;2.92;;;1.38;;
46222;SDS011;31943;51.410;7.564;2023-08-31T09:49:44;2.90;;;1.40;;
46222;SDS011;31943;51.410;7.564;2023-08-31T09:52:11;3.05;;;1.52;;
46222;SDS011;31943;51.410;7.564;2023-08-31T09:54:43;2.83;;;1.50;;
46222;SDS011;31943;51.410;7.564;2023-08-31T09:57:09;3.88;;;1.35;;
46222;SDS011;31943;51.410;7.564;2023-08-31T09:59:37;4.47;;;1.30;;
46222;SDS011;31943;51.410;7.564;2023-08-31T10:02:05;6.00;;;1.40;;
46222;SDS011;31943;51.410;7.564;2023-08-31T10:04:34;3.17;;;1.25;;
46222;SDS011;31943;51.410;7.564;2023-08-31T10:07:00;2.88;;;1.17;;
46222;SDS011;31943;51.410;7.564;2023-08-31T10:09:28;5.00;;;1.30;;
46222;SDS011;31943;51.410;7.564;2023-08-31T10:11:55;3.83;;;1.33;;
46222;SDS011;31943;51.410;7.564;2023-08-31T10:14:22;2.60;;;1.08;;
46222;SDS011;31943;51.410;7.564;2023-08-31T10:16:49;2.72;;;1.30;;
46222;SDS011;31943;51.410;7.564;2023-08-31T10:19:15;4.90;;;1.35;;
46222;SDS011;31943;51.410;7.564;2023-08-31T10:21:41;2.15;;;1.10;;
46222;SDS011;31943;51.410;7.564;2023-08-31T10:24:07;5.25;;;1.45;;
46222;SDS011;31943;51.410;7.564;2023-08-31T10:26:32;2.83;;;1.48;;
46222;SDS011;31943;51.410;7.564;2023-08-31T10:29:00;3.47;;;1.30;;
46222;SDS011;31943;51.410;7.564;2023-08-31T10:31:27;3.50;;;1.10;;
46222;SDS011;31943;51.410;7.564;2023-08-31T10:33:55;4.50;;;1.50;;
46222;SDS011;31943;51.410;7.564;2023-08-31T10:36:34;2.45;;;1.27;;
46222;SDS011;31943;51.410;7.564;2023-08-31T10:39:05;2.17;;;1.20;;
46222;SDS011;31943;51.410;7.564;2023-08-31T10:41:35;1.95;;;1.10;;
46222;SDS011;31943;51.410;7.564;2023-08-31T10:44:03;4.25;;;1.23;;
46222;SDS011;31943;51.410;7.564;2023-08-31T10:46:43;3.50;;;1.10;;
46222;SDS011;31943;51.410;7.564;2023-08-31T10:49:14;5.93;;;1.50;;
46222;SDS011;31943;51.410;7.564;2023-08-31T10:51:42;2.15;;;0.88;;
46222;SDS011;31943;51.410;7.564;2023-08-31T10:54:10;3.85;;;1.35;;
46222;SDS011;31943;51.410;7.564;2023-08-31T10:57:00;2.00;;;1.00;;
46222;SDS011;31943;51.410;7.564;2023-08-31T10:59:41;3.25;;;1.10;;
46222;SDS011;31943;51.410;7.564;2023-08-31T11:02:08;3.30;;;0.90;;
46222;SDS011;31943;51.410;7.564;2023-08-31T11:07:19;2.17;;;1.00;;
46222;SDS011;31943;51.410;7.564;2023-08-31T11:09:48;3.72;;;1.17;;
46222;SDS011;31943;51.410;7.564;2023-08-31T11:12:14;4.00;;;1.50;;
46222;SDS011;31943;51.410;7.564;2023-08-31T11:14:41;4.80;;;1.70;;
46222;SDS011;31943;51.410;7.564;2023-08-31T11:17:08;7.13;;;1.67;;
46222;SDS011;31943;51.410;7.564;2023-08-31T11:19:35;4.63;;;1.27;;
46222;SDS011;31943;51.410;7.564;2023-08-31T11:22:03;3.63;;;1.15;;
46222;SDS011;31943;51.410;7.564;2023-08-31T11:24:29;2.20;;;1.05;;
46222;SDS011;31943;51.410;7.564;2023-08-31T11:26:55;1.98;;;1.30;;
46222;SDS011;31943;51.410;7.564;2023-08-31T11:29:20;3.15;;;1.40;;
46222;SDS011;31943;51.410;7.564;2023-08-31T11:31:48;3.47;;;1.40;;
46222;SDS011;31943;51.410;7.564;2023-08-31T11:34:15;4.88;;;1.38;;
46222;SDS011;31943;51.410;7.564;2023-08-31T11:36:42;2.45;;;1.20;;
46222;SDS011;31943;51.410;7.564;2023-08-31T11:39:08;3.50;;;1.42;;
46222;SDS011;31943;51.410;7.564;2023-08-31T11:41:35;5.85;;;1.23;;
46222;SDS011;31943;51.410;7.564;2023-08-31T11:44:02;6.63;;;1.92;;
46222;SDS011;31943;51.410;7.564;2023-08-31T11:46:31;3.78;;;1.58;;
46222;SDS011;31943;51.410;7.564;2023-08-31T11:48:59;2.80;;;1.40;;
46222;SDS011;31943;51.410;7.564;2023-08-31T11:51:27;2.47;;;1.20;;
46222;SDS011;31943;51.410;7.564;2023-08-31T11:53:53;3.72;;;1.27;;
46222;SDS011;31943;51.410;7.564;2023-08-31T11:56:18;3.08;;;1.20;;
46222;SDS011;31943;51.410;7.564;2023-08-31T11:58:44;3.53;;;1.27;;
46222;SDS011;31943;51.410;7.564;2023-08-31T12:01:10;2.40;;;1.20;;
46222;SDS011;31943;51.410;7.564;2023-08-31T12:03:44;3.30;;;1.27;;
46222;SDS011;31943;51.410;7.564;2023-08-31T12:06:11;4.60;;;1.10;;
46222;SDS011;31943;51.410;7.564;2023-08-31T12:08:39;1.77;;;0.85;;
46222;SDS011;31943;51.410;7.564;2023-08-31T12:11:06;6.03;;;1.10;;
46222;SDS011;31943;51.410;7.564;2023-08-31T12:13:32;4.55;;;1.15;;
46222;SDS011;31943;51.410;7.564;2023-08-31T12:15:58;2.70;;;1.20;;
46222;SDS011;31943;51.410;7.564;2023-08-31T12:18:25;2.75;;;1.40;;
46222;SDS011;31943;51.410;7.564;2023-08-31T12:20:54;5.10;;;1.60;;
46222;SDS011;31943;51.410;7.564;2023-08-31T12:23:22;3.92;;;1.65;;
46222;SDS011;31943;51.410;7.564;2023-08-31T12:25:48;5.40;;;1.80;;
46222;SDS011;31943;51.410;7.564;2023-08-31T12:28:15;3.50;;;1.48;;
46222;SDS011;31943;51.410;7.564;2023-08-31T12:30:41;4.32;;;1.40;;
46222;SDS011;31943;51.410;7.564;2023-08-31T12:33:08;5.25;;;1.65;;
46222;SDS011;31943;51.410;7.564;2023-08-31T12:35:34;3.83;;;1.70;;
46222;SDS011;31943;51.410;7.564;2023-08-31T12:37:59;7.20;;;1.70;;
46222;SDS011;31943;51.410;7.564;2023-08-31T12:40:27;4.00;;;1.70;;
46222;SDS011;31943;51.410;7.564;2023-08-31T12:42:55;5.63;;;1.80;;
46222;SDS011;31943;51.410;7.564;2023-08-31T12:45:21;3.45;;;1.70;;
46222;SDS011;31943;51.410;7.564;2023-08-31T12:47:47;3.38;;;1.27;;
46222;SDS011;31943;51.410;7.564;2023-08-31T12:50:12;3.05;;;1.48;;
46222;SDS011;31943;51.410;7.564;2023-08-31T12:52:38;3.53;;;1.40;;
46222;SDS011;31943;51.410;7.564;2023-08-31T12:55:04;3.72;;;1.38;;
46222;SDS011;31943;51.410;7.564;2023-08-31T12:57:31;3.42;;;1.58;;
46222;SDS011;31943;51.410;7.564;2023-08-31T12:59:58;3.33;;;1.10;;
46222;SDS011;31943;51.410;7.564;2023-08-31T13:02:24;3.28;;;1.10;;
46222;SDS011;31943;51.410;7.564;2023-08-31T13:04:50;3.80;;;1.35;;
46222;SDS011;31943;51.410;7.564;2023-08-31T13:07:16;4.75;;;1.92;;
46222;SDS011;31943;51.410;7.564;2023-08-31T13:09:41;4.55;;;1.25;;
46222;SDS011;31943;51.410;7.564;2023-08-31T13:12:07;3.45;;;1.25;;
46222;SDS011;31943;51.410;7.564;2023-08-31T13:14:36;2.80;;;1.10;;
46222;SDS011;31943;51.410;7.564;2023-08-31T13:17:03;4.03;;;1.27;;
46222;SDS011;31943;51.410;7.564;2023-08-31T13:19:30;2.63;;;0.90;;
46222;SDS011;31943;51.410;7.564;2023-08-31T13:21:55;2.53;;;0.90;;
46222;SDS011;31943;51.410;7.564;2023-08-31T13:24:21;3.67;;;1.05;;
46222;SDS011;31943;51.410;7.564;2023-08-31T13:26:47;2.10;;;0.88;;
46222;SDS011;31943;51.410;7.564;2023-08-31T13:29:14;3.08;;;0.90;;
46222;SDS011;31943;51.410;7.564;2023-08-31T13:31:42;1.95;;;0.80;;
46222;SDS011;31943;51.410;7.564;2023-08-31T13:34:07;2.17;;;1.05;;
46222;SDS011;31943;51.410;7.564;2023-08-31T13:36:34;3.72;;;0.90;;
46222;SDS011;31943;51.410;7.564;2023-08-31T13:39:00;2.42;;;0.93;;
46222;SDS011;31943;51.410;7.564;2023-08-31T13:41:26;2.08;;;0.80;;
46222;SDS011;31943;51.410;7.564;2023-08-31T13:43:52;1.60;;;1.10;;
46222;SDS011;31943;51.410;7.564;2023-08-31T13:46:18;3.40;;;1.10;;
46222;SDS011;31943;51.410;7.564;2023-08-31T13:48:49;4.45;;;1.02;;
46222;SDS011;31943;51.410;7.564;2023-08-31T13:51:15;3.67;;;1.30;;
46222;SDS011;31943;51.410;7.564;2023-08-31T13:53:40;3.35;;;1.20;;
46222;SDS011;31943;51.410;7.564;2023-08-31T13:56:08;2.53;;;1.30;;
46222;SDS011;31943;51.410;7.564;2023-08-31T13:58:34;1.83;;;1.08;;
46222;SDS011;31943;51.410;7.564;2023-08-31T14:01:00;2.20;;;1.17;;
46222;SDS011;31943;51.410;7.564;2023-08-31T14:03:26;4.70;;;1.40;;
46222;SDS011;31943;51.410;7.564;2023-08-31T14:05:53;3.28;;;1.83;;
46222;SDS011;31943;51.410;7.564;2023-08-31T14:08:20;3.22;;;1.27;;
46222;SDS011;31943;51.410;7.564;2023-08-31T14:10:48;3.85;;;1.35;;
46222;SDS011;31943;51.410;7.564;2023-08-31T14:13:14;2.83;;;1.27;;
46222;SDS011;31943;51.410;7.564;2023-08-31T14:15:43;3.65;;;1.65;;
46222;SDS011;31943;51.410;7.564;2023-08-31T14:18:12;3.00;;;1.42;;
46222;SDS011;31943;51.410;7.564;2023-08-31T14:20:38;3.13;;;1.35;;
46222;SDS011;31943;51.410;7.564;2023-08-31T14:23:06;5.00;;;2.15;;
46222;SDS011;31943;51.410;7.564;2023-08-31T14:25:33;3.25;;;1.38;;
46222;SDS011;31943;51.410;7.564;2023-08-31T14:28:00;3.58;;;1.50;;
46222;SDS011;31943;51.410;7.564;2023-08-31T14:30:25;5.10;;;1.70;;
46222;SDS011;31943;51.410;7.564;2023-08-31T14:32:51;4.20;;;1.85;;
46222;SDS011;31943;51.410;7.564;2023-08-31T14:35:16;4.07;;;1.77;;
46222;SDS011;31943;51.410;7.564;2023-08-31T14:37:42;5.03;;;1.40;;
46222;SDS011;31943;51.410;7.564;2023-08-31T14:40:10;4.57;;;2.20;;
46222;SDS011;31943;51.410;7.564;2023-08-31T14:42:36;2.75;;;1.40;;
46222;SDS011;31943;51.410;7.564;2023-08-31T14:45:02;5.80;;;1.70;;
46222;SDS011;31943;51.410;7.564;2023-08-31T14:47:27;3.50;;;2.00;;
46222;SDS011;31943;51.410;7.564;2023-08-31T14:49:54;4.90;;;1.73;;
46222;SDS011;31943;51.410;7.564;2023-08-31T14:52:20;6.65;;;1.67;;
46222;SDS011;31943;51.410;7.564;2023-08-31T14:54:45;5.05;;;2.10;;